Time;durP1;ratioP1;P1;durP2;ratioP2;P2;SDS_P1;SDS_P2;PMS_P1;PMS_P2;Temp;Humidity;BMP_temperature;BMP_pressure;BME280_temperature;BME280_humidity;BME280_pressure;Samples;Min_cycle;Max_cycle;Signal;HPM_P1;HPM_P2
2022/04/01 00:28:14;;;;;;;8.43;6.05;;;;;;;-1.65;100.00;100278.53;4701839;30;20451;-80
2022/04/01 00:30:40;;;;;;;8.75;6.85;;;;;;;-2.23;100.00;100176.88;4702803;30;20034;-80
2022/04/01 00:33:11;;;;;;;10.10;7.03;;;;;;;-1.68;100.00;100261.69;4702688;30;20072;-81
2022/04/01 00:36:02;;;;;;;10.17;7.23;;;;;;;-2.44;100.00;100135.16;4702739;30;20041;-81
2022/04/01 00:38:55;;;;;;;9.07;6.78;;;;;;;-1.10;100.00;100351.56;4702572;30;20034;-82
2022/04/01 00:41:32;;;;;;;8.95;6.80;;;;;;;-2.24;100.00;100169.31;4702551;30;20037;-81
2022/04/01 00:48:32;;;;;;;10.00;6.82;;;;;;;-1.15;100.00;100343.25;4699740;30;20064;-81
2022/04/01 00:50:58;;;;;;;8.77;5.50;;;;;;;-1.60;100.00;100282.59;4701038;30;20043;-81
2022/04/01 00:53:58;;;;;;;9.20;6.72;;;;;;;-1.17;100.00;100350.88;4686487;30;20047;-81
2022/04/01 01:03:07;;;;;;;11.20;7.10;;;;;;;-2.32;100.00;100177.88;4701961;30;20056;-82
2022/04/01 02:30:26;;;;;;;;;;;;;;;;;;;;;
2022/04/01 02:39:43;;;;;;;9.82;7.47;;;;;;;-2.30;100.00;100223.38;4699932;30;20496;-82
2022/04/01 02:42:33;;;;;;;9.13;7.63;;;;;;;-1.22;100.00;100412.66;4700370;30;20061;-81
2022/04/01 02:45:32;;;;;;;11.48;8.57;;;;;;;-1.22;100.00;100413.47;4700460;30;20373;-82
2022/04/01 02:48:14;;;;;;;10.05;7.88;;;;;;;-1.57;100.00;100361.06;4700390;30;20048;-81
2022/04/01 02:51:32;;;;;;;10.68;8.30;;;;;;;-1.20;100.00;100414.28;4684215;30;20052;-81
2022/04/01 02:54:13;;;;;;;11.63;9.20;;;;;;;-2.22;100.00;100259.47;4700419;30;20374;-81
2022/04/01 02:56:40;;;;;;;11.43;8.60;;;;;;;-1.32;100.00;100411.16;4700223;30;20037;-81
2022/04/01 02:59:30;;;;;;;11.43;8.38;;;;;;;-1.20;100.00;100428.63;4700159;30;20067;-80
2022/04/01 03:01:55;;;;;;;11.55;8.75;;;;;;;-1.33;100.00;100417.09;4700032;30;20033;-82
2022/04/01 03:04:36;;;;;;;10.88;8.63;;;;;;;-1.93;100.00;100311.19;4700001;30;20365;-81
2022/04/01 03:07:02;;;;;;;11.53;9.40;;;;;;;-1.86;100.00;100338.88;4700087;30;20087;-81
2022/04/01 03:09:33;;;;;;;9.60;8.38;;;;;;;-2.05;100.00;100297.91;4684410;30;20042;-80
2022/04/01 03:12:16;;;;;;;9.70;8.50;;;;;;;-2.15;100.00;100291.38;4670160;30;20116;-81
2022/04/01 03:14:41;;;;;;;11.48;8.73;;;;;;;-1.57;100.00;100391.44;4700012;30;20040;-80
2022/04/01 03:17:22;;;;;;;9.65;7.57;;;;;;;-1.77;100.00;100348.81;4699673;30;20041;-80
2022/04/01 03:20:01;;;;;;;10.80;8.65;;;;;;;-1.86;100.00;100348.97;4700008;30;20034;-80
2022/04/01 03:22:30;;;;;;;10.05;7.85;;;;;;;-1.21;100.00;100453.13;4684167;30;20037;-81
2022/04/01 03:25:19;;;;;;;10.75;8.68;;;;;;;-1.25;100.00;100456.63;4699768;30;20037;-77
2022/04/01 03:27:48;;;;;;;9.55;7.75;;;;;;;-2.40;100.00;100282.56;4699646;30;20037;-82
2022/04/01 03:30:21;;;;;;;10.07;7.00;;;;;;;-2.19;100.00;100309.16;4699837;30;20029;-81
2022/04/01 03:32:51;;;;;;;9.55;7.88;;;;;;;-1.27;100.00;100468.47;4699491;30;20034;-81
2022/04/01 03:35:27;;;;;;;9.80;8.10;;;;;;;-1.51;100.00;100446.16;4699637;30;20069;-81
2022/04/01 03:38:00;;;;;;;9.70;8.38;;;;;;;-1.74;100.00;100403.59;4697471;30;20085;-81
2022/04/01 03:41:16;;;;;;;12.25;8.40;;;;;;;-2.04;100.00;100357.75;4697487;30;20056;-82
2022/04/01 03:44:10;;;;;;;10.10;8.20;;;;;;;-1.26;100.00;100476.91;4677354;30;20107;-81
2022/04/01 03:49:07;;;;;;;10.00;8.60;;;;;;;-1.48;100.00;100446.94;4682945;30;20128;-81
2022/04/01 03:51:34;;;;;;;10.70;9.02;;;;;;;-1.51;100.00;100446.16;4686675;30;20042;-82
2022/04/01 03:54:02;;;;;;;10.20;8.07;;;;;;;-1.49;100.00;100459.63;4688028;30;20045;-82
2022/04/01 03:56:34;;;;;;;11.35;8.77;;;;;;;-1.46;100.00;100467.19;4686867;30;20046;-82
2022/04/01 03:59:18;;;;;;;;;;;;;;;;;;;;;
2022/04/01 04:05:03;;;;;;;9.73;7.07;;;;;;;-1.74;100.00;100434.78;4662200;30;20056;-82
2022/04/01 04:08:03;;;;;;;9.50;7.85;;;;;;;-1.95;100.00;100404.81;4687990;30;20535;-82
2022/04/01 04:10:30;;;;;;;10.55;8.52;;;;;;;-2.34;100.00;100343.97;4686577;30;20080;-82
2022/04/01 04:13:26;;;;;;;10.48;8.30;;;;;;;-1.34;100.00;100514.22;4686548;30;20129;-82
2022/04/01 04:16:37;;;;;;;9.98;7.78;;;;;;;-2.27;100.00;100369.97;4687878;30;20037;-82
2022/04/01 04:32:42;;;;;;;11.15;8.10;;;;;;;-1.36;100.00;100542.13;4617819;31;20086;-82
2022/04/01 04:36:30;;;;;;;11.05;8.57;;;;;;;-1.35;100.00;100565.75;4604119;31;20048;-83
2022/04/01 04:47:57;;;;;;;9.75;7.35;;;;;;;-1.33;100.00;100569.09;4923141;25;20059;-82
2022/04/01 04:50:23;;;;;;;9.73;7.22;;;;;;;-2.22;100.00;100421.31;4655103;30;20035;-83
2022/04/01 04:53:04;;;;;;;11.20;7.88;;;;;;;-2.20;100.00;100439.00;4670172;30;20038;-83
2022/04/01 04:55:40;;;;;;;10.23;6.85;;;;;;;-1.53;100.00;100550.00;4670417;30;20064;-83
2022/04/01 05:15:47;;;;;;;10.52;7.97;;;;;;;-1.35;100.00;100601.22;4648402;30;20039;-85
2022/04/01 05:28:15;;;;;;;10.27;7.20;;;;;;;-1.35;100.00;100634.13;4648656;30;20061;-85
2022/04/01 05:30:41;;;;;;;;;;;;;;;-1.35;100.00;100634.97;4648471;30;20039;-84
2022/04/01 05:56:22;;;;;;;8.05;6.30;;;;;;;-1.36;100.00;100689.03;4701422;30;20048;-84
2022/04/01 05:58:53;;;;;;;8.63;6.45;;;;;;;-2.35;100.00;100521.03;4701408;30;20037;-84
2022/04/01 06:15:33;;;;;;;8.32;5.53;;;;;;;-1.34;100.00;100709.25;4701075;30;20049;-85
2022/04/01 06:18:52;;;;;;;8.15;5.93;;;;;;;-2.04;100.00;100610.75;4699551;30;20041;-82
2022/04/01 06:21:34;;;;;;;7.95;5.30;;;;;;;-1.37;100.00;100716.91;4700549;30;20038;-82
2022/04/01 06:24:17;;;;;;;;;;;;;;;-1.37;100.00;100721.97;4701161;30;20030;-81
2022/04/01 06:27:15;;;;;;;;;;;;;;;;;;;;;
2022/04/01 06:30:05;;;;;;;6.22;4.72;;;;;;;-2.19;100.00;100607.59;4700205;30;20051;-82
2022/04/01 06:33:08;;;;;;;8.07;5.00;;;;;;;-1.36;100.00;100746.44;4700392;30;20033;-83
2022/04/01 06:45:53;;;;;;;7.47;4.80;;;;;;;-1.72;100.00;100710.66;4697097;30;20073;-82
2022/04/01 06:52:28;;;;;;;8.05;4.88;;;;;;;-1.35;100.00;100783.56;4699394;30;20490;-81
2022/04/01 06:55:12;;;;;;;7.05;4.40;;;;;;;-1.85;100.00;100699.06;4700384;30;20052;-80
2022/04/01 06:57:38;;;;;;;8.07;4.97;;;;;;;-1.54;100.00;100750.91;4700188;30;20030;-83
2022/04/01 07:00:16;;;;;;;7.28;5.18;;;;;;;-1.80;100.00;100713.31;4700148;30;20036;-78
2022/04/01 07:03:38;;;;;;;6.93;4.70;;;;;;;-1.35;100.00;100791.16;4684472;30;20113;-81
2022/04/01 07:09:10;;;;;;;8.00;4.53;;;;;;;-2.34;100.00;100633.94;4682729;30;19978;-79
2022/04/01 07:11:35;;;;;;;6.03;4.57;;;;;;;-1.81;100.00;100725.97;4682325;30;20030;-81
2022/04/01 07:14:35;;;;;;;6.05;4.20;;;;;;;-1.32;100.00;100808.84;4682745;30;20100;-78
2022/04/01 07:17:01;;;;;;;7.38;4.60;;;;;;;-2.09;100.00;100679.97;4682606;30;20034;-80
2022/04/01 07:24:02;;;;;;;6.25;4.32;;;;;;;-1.30;100.00;100805.44;4697386;30;20068;-82
2022/04/01 07:26:30;;;;;;;6.20;4.53;;;;;;;-2.42;100.00;100625.63;4699643;30;20116;-81
2022/04/01 07:28:56;;;;;;;6.50;3.92;;;;;;;-1.97;100.00;100694.97;4699845;30;20025;-85
2022/04/01 07:34:44;;;;;;;6.55;4.40;;;;;;;-2.37;100.00;100642.38;4699729;30;20044;-85
2022/04/01 07:44:35;;;;;;;7.68;4.25;;;;;;;-1.25;100.00;100835.78;4699462;30;20084;-83
2022/04/01 07:47:25;;;;;;;7.85;3.95;;;;;;;-1.26;100.00;100836.63;4699602;30;20092;-82
2022/04/01 08:06:56;;;;;;;6.18;4.10;;;;;;;-1.27;100.00;100843.41;4698817;30;20084;-83
2022/04/01 08:13:11;;;;;;;6.32;4.18;;;;;;;-1.19;100.00;100858.47;4699215;30;20059;-84
2022/04/01 08:40:37;;;;;;;5.35;3.25;;;;;;;-1.06;100.00;100910.69;4651159;30;20057;-81
2022/04/01 08:46:43;;;;;;;5.03;3.47;;;;;;;-1.37;100.00;100864.66;4667921;30;20092;-82
2022/04/01 08:49:37;;;;;;;5.35;3.40;;;;;;;-0.98;100.00;100934.22;4667969;30;20043;-80
2022/04/01 08:56:20;;;;;;;5.80;3.33;;;;;;;-0.91;100.00;100940.03;4667797;30;20056;-86
2022/04/01 08:59:26;;;;;;;5.68;3.33;;;;;;;-0.85;100.00;100936.56;4667791;30;20101;-86
2022/04/01 09:08:45;;;;;;;4.53;3.13;;;;;;;-1.12;100.00;100902.31;4598151;31;20191;-84
2022/04/01 09:11:39;;;;;;;5.18;2.67;;;;;;;-0.71;100.00;100955.78;4598392;31;20106;-80
2022/04/01 09:14:22;;;;;;;4.30;2.85;;;;;;;-1.47;100.00;100841.16;4598387;31;20047;-83
2022/04/01 09:16:51;;;;;;;5.55;3.00;;;;;;;-1.06;100.00;100894.63;4598453;31;20040;-83
2022/04/01 09:19:32;;;;;;;4.40;2.75;;;;;;;-1.59;100.00;100808.38;4598168;31;20463;-81
2022/04/01 09:22:25;;;;;;;;;;;;;;;-0.64;100.00;100964.16;4598023;31;20044;-82
2022/04/01 09:25:43;;;;;;;5.18;2.60;;;;;;;-0.65;100.00;100963.31;4598283;31;20406;-82
2022/04/01 09:28:08;;;;;;;4.70;2.65;;;;;;;-1.09;100.00;100903.09;4598055;31;20044;-79
2022/04/01 09:34:47;;;;;;;5.28;2.53;;;;;;;-0.69;100.00;100976.91;4597919;31;20478;-80
2022/04/01 09:37:13;;;;;;;3.58;2.28;;;;;;;-1.89;100.00;100783.44;4560681;31;20072;-80
2022/04/01 09:43:27;;;;;;;4.15;2.50;;;;;;;-0.71;100.00;100987.91;4597948;31;20055;-80
2022/04/01 09:45:52;;;;;;;4.63;2.30;;;;;;;-1.62;100.00;100843.88;4665901;30;20045;-80
2022/04/01 09:51:47;;;;;;;5.10;2.60;;;;;;;-0.98;100.00;100958.72;4666818;30;20057;-78
2022/04/01 09:58:08;;;;;;;5.10;2.40;;;;;;;-0.68;100.00;100992.97;4666570;30;20097;-80
2022/04/01 10:00:38;;;;;;;4.32;2.50;;;;;;;-1.06;100.00;100925.03;4666481;30;20066;-78
2022/04/01 10:05:51;;;;;;;4.53;2.50;;;;;;;-1.71;100.00;100818.66;4598541;30;20423;-75
2022/04/01 10:08:21;;;;;;;4.60;2.80;;;;;;;-1.65;100.00;100826.19;4583611;31;20052;-76
2022/04/01 10:10:52;;;;;;;4.55;2.58;;;;;;;-1.48;100.00;100846.19;4597349;31;20048;-76
2022/04/01 10:13:48;;;;;;;3.60;2.22;;;;;;;-1.25;100.00;100882.22;4597445;31;20527;-78
2022/04/01 10:22:25;;;;;;;5.00;2.50;;;;;;;-0.46;100.00;100991.78;4664618;30;20065;-79
2022/04/01 10:25:19;;;;;;;4.50;2.65;;;;;;;-0.35;100.00;100996.69;4666032;30;20050;-79
2022/04/01 10:27:51;;;;;;;3.67;2.40;;;;;;;-0.34;100.00;101001.75;4666285;30;20540;-79
2022/04/01 10:30:18;;;;;;;3.97;2.42;;;;;;;-0.84;100.00;100906.13;4666478;30;20096;-80
2022/04/01 10:32:47;;;;;;;4.93;2.80;;;;;;;-0.60;100.00;100932.78;4666177;30;20049;-80
2022/04/01 10:35:24;;;;;;;3.75;2.80;;;;;;;-0.45;100.00;100978.22;4666052;30;20441;-79
2022/04/01 10:38:04;;;;;;;4.60;3.17;;;;;;;-0.34;100.00;100989.06;4666243;30;20070;-80
2022/04/01 10:40:36;;;;;;;4.72;3.15;;;;;;;-0.41;100.00;100972.25;4666198;30;20041;-79
2022/04/01 10:43:10;;;;;;;4.05;3.15;;;;;;;-0.31;100.00;100999.16;4665604;30;20070;-79
2022/04/01 10:45:38;;;;;;;4.57;3.22;;;;;;;-0.50;100.00;100967.31;4665965;30;20046;-81
2022/04/01 10:51:36;;;;;;;4.88;3.50;;;;;;;-0.28;100.00;101010.13;4630444;31;20070;-79
2022/04/01 10:54:14;;;;;;;4.70;3.50;;;;;;;-0.25;99.23;101005.00;4630155;31;20055;-81
2022/04/01 11:12:14;;;;;;;6.18;3.63;;;;;;;-0.23;99.61;101015.97;4681307;30;20077;-79
2022/04/01 11:18:10;;;;;;;7.53;4.13;;;;;;;-1.40;98.44;100828.38;4682758;30;20126;-79
2022/04/01 11:20:37;;;;;;;5.15;3.65;;;;;;;-1.04;99.76;100900.50;4681562;30;20507;-78
2022/04/01 11:23:10;;;;;;;5.63;4.13;;;;;;;-1.29;100.00;100855.22;4682692;30;20049;-79
2022/04/01 11:25:47;;;;;;;7.35;4.38;;;;;;;-0.21;99.37;101042.97;4694716;30;20049;-78
2022/04/01 11:28:19;;;;;;;5.80;4.13;;;;;;;-1.30;99.33;100855.25;4682017;30;20511;-79
2022/04/01 11:34:23;;;;;;;6.65;4.75;;;;;;;-0.63;100.00;100970.91;4647783;30;20046;-78
2022/04/01 11:37:03;;;;;;;6.72;4.65;;;;;;;-1.12;100.00;100895.53;4646395;30;20035;-81
2022/04/01 11:39:28;;;;;;;6.15;4.50;;;;;;;-0.16;98.52;101046.31;4646377;30;20054;-77
2022/04/01 11:41:54;;;;;;;5.88;4.38;;;;;;;-0.31;97.14;101024.53;4646415;30;20039;-77
2022/04/01 11:44:21;;;;;;;8.18;5.07;;;;;;;-0.33;98.32;101017.78;4646152;30;20051;-77
2022/04/01 11:46:51;;;;;;;6.40;4.43;;;;;;;-0.22;98.39;101027.78;4632092;30;20405;-79
2022/04/01 11:49:17;;;;;;;7.15;4.68;;;;;;;-0.14;97.39;101048.81;4646392;30;20132;-80
2022/04/01 11:51:42;;;;;;;7.22;4.75;;;;;;;-0.34;97.80;101008.50;4646287;30;20047;-79
2022/04/01 11:54:10;;;;;;;6.53;4.90;;;;;;;-0.11;98.83;101054.66;4646855;30;20452;-77
2022/04/01 11:56:35;;;;;;;8.57;5.32;;;;;;;-0.17;98.62;101020.94;4645750;30;20529;-76
2022/04/01 11:59:03;;;;;;;7.10;4.60;;;;;;;0.03;98.06;101043.47;4632050;30;20054;-80
2022/04/01 12:01:31;;;;;;;6.72;4.50;;;;;;;0.04;98.14;101042.59;4646261;30;20038;-78
2022/04/01 12:04:09;;;;;;;8.48;4.85;;;;;;;0.07;98.13;101047.63;4646303;30;20057;-79
2022/04/01 12:09:31;;;;;;;6.88;5.15;;;;;;;0.15;99.10;101051.72;4646444;30;20049;-79
2022/04/01 12:11:58;;;;;;;8.35;4.90;;;;;;;0.22;98.21;101048.22;4686893;30;20065;-80
2022/04/01 12:21:57;;;;;;;9.90;5.05;;;;;;;0.36;97.71;101065.75;4582552;31;20055;-79
2022/04/01 12:25:24;;;;;;;5.90;4.22;;;;;;;-0.85;95.17;100860.53;4583284;31;20041;-80
2022/04/01 12:28:43;;;;;;;6.30;4.40;;;;;;;0.39;97.79;101067.41;4565752;31;20193;-80
2022/04/01 12:45:06;;;;;;;7.55;5.10;;;;;;;-0.21;94.79;101022.69;4517167;31;20524;-78
2022/04/01 12:47:43;;;;;;;7.75;4.82;;;;;;;-0.84;95.86;100903.59;4516819;31;20050;-79
2022/04/01 12:51:08;;;;;;;;;;;;;;;;;;;;;
2022/04/01 12:54:08;;;;;;;7.07;5.00;;;;;;;0.77;93.21;101094.69;4513721;31;20501;-79
2022/04/01 12:56:38;;;;;;;6.18;4.82;;;;;;;0.43;90.52;101005.53;4500961;31;20051;-79
2022/04/01 12:59:13;;;;;;;7.40;5.00;;;;;;;1.07;89.56;101088.16;4560988;31;20053;-79
2022/04/01 13:01:40;;;;;;;6.63;4.97;;;;;;;0.00;88.63;100909.81;4565802;31;20041;-79
2022/04/01 13:05:06;;;;;;;6.45;4.60;;;;;;;0.19;87.55;100920.44;4572366;31;20614;-80
2022/04/01 13:15:36;;;;;;;6.68;4.75;;;;;;;1.27;88.32;101108.13;4564687;31;20097;-79
2022/04/01 13:18:02;;;;;;;7.22;5.05;;;;;;;-0.04;89.15;100928.50;4588198;31;20063;-78
2022/04/01 13:20:49;;;;;;;8.95;5.70;;;;;;;0.73;89.54;101043.06;4614736;31;20043;-79
2022/04/01 13:23:14;;;;;;;7.72;5.60;;;;;;;0.20;88.87;100920.44;4614000;31;20035;-78
2022/04/01 13:32:46;;;;;;;7.25;5.03;;;;;;;0.03;88.14;100924.16;4614508;31;20074;-80
2022/04/01 13:35:11;;;;;;;6.53;4.63;;;;;;;0.90;86.41;101068.19;4614596;31;20036;-81
2022/04/01 13:45:11;;;;;;;7.10;5.28;;;;;;;1.59;85.51;101125.28;4647869;30;20075;-80
2022/04/01 13:48:26;;;;;;;7.55;5.13;;;;;;;1.75;84.83;101126.63;4648012;30;20140;-78
2022/04/01 13:51:21;;;;;;;7.30;5.47;;;;;;;1.92;83.99;101116.91;4647828;30;20049;-79
2022/04/01 13:53:58;;;;;;;7.75;5.22;;;;;;;0.80;84.69;100920.09;4647979;30;20038;-80
2022/04/01 13:56:41;;;;;;;8.55;5.25;;;;;;;1.72;83.76;101051.16;4648018;30;20039;-80
2022/04/01 13:59:16;;;;;;;6.55;4.97;;;;;;;1.87;82.02;101039.81;4647578;30;20039;-79
2022/04/01 14:02:31;;;;;;;6.97;5.00;;;;;;;2.44;82.50;101110.56;4646540;30;20031;-79
2022/04/01 14:11:44;;;;;;;7.72;4.60;;;;;;;1.07;79.09;100903.38;4683817;30;20128;-78
2022/04/01 14:17:51;;;;;;;6.93;4.50;;;;;;;2.08;79.09;101079.19;4691858;30;20053;-77
2022/04/01 14:20:32;;;;;;;7.30;4.55;;;;;;;1.20;80.69;100937.00;4700654;30;20038;-77
2022/04/01 14:26:06;;;;;;;6.03;3.97;;;;;;;1.62;76.67;101043.78;4699341;30;20054;-79
2022/04/01 14:28:39;;;;;;;8.30;4.57;;;;;;;1.77;77.43;101062.94;4700217;30;20036;-77
2022/04/01 14:32:37;;;;;;;7.07;3.95;;;;;;;1.70;76.87;101044.44;4700495;30;20108;-78
2022/04/01 14:34:55;;;;;;;;;;;;;;;;;;;;;
2022/04/01 14:37:38;;;;;;;7.50;4.10;;;;;;;1.94;76.22;101060.84;4698297;30;20046;-77
2022/04/01 14:40:34;;;;;;;5.05;3.85;;;;;;;2.43;76.41;101129.28;4700174;30;20487;-76
2022/04/01 14:43:46;;;;;;;5.68;3.60;;;;;;;2.35;74.33;101121.00;4699702;30;20041;-77
2022/04/01 14:46:12;;;;;;;5.72;3.53;;;;;;;1.56;74.20;100996.38;4700218;30;20065;-79
2022/04/01 14:48:55;;;;;;;5.97;3.55;;;;;;;1.20;74.94;100961.59;4699485;30;20120;-77
2022/04/01 14:51:33;;;;;;;5.15;3.40;;;;;;;1.22;74.89;100955.59;4699283;30;20045;-78
2022/04/01 14:54:01;;;;;;;5.72;3.45;;;;;;;1.33;73.34;100950.28;4690534;25;20555;-77
2022/04/01 14:56:27;;;;;;;5.25;3.50;;;;;;;2.51;74.07;101127.41;4683155;30;20065;-79
2022/04/01 14:58:55;;;;;;;4.20;2.72;;;;;;;2.66;71.58;101130.44;4682755;30;20050;-78
2022/04/01 15:14:29;;;;;;;4.93;2.97;;;;;;;3.01;69.56;101147.38;4681034;30;20098;-79
2022/04/01 15:17:12;;;;;;;5.68;2.90;;;;;;;2.74;70.65;101095.38;4682308;30;20400;-78
2022/04/01 15:19:41;;;;;;;3.95;2.42;;;;;;;3.07;70.39;101148.06;4682609;30;20109;-78
2022/04/01 15:22:09;;;;;;;5.18;2.75;;;;;;;3.20;69.70;101160.47;4682656;30;20033;-76
2022/04/01 15:24:34;;;;;;;4.15;2.55;;;;;;;3.23;71.72;101157.81;4682468;30;20026;-78
2022/04/01 15:27:02;;;;;;;4.35;2.47;;;;;;;3.23;71.74;101166.31;4682364;30;20120;-77
2022/04/01 15:29:29;;;;;;;3.10;2.30;;;;;;;2.99;71.17;101131.28;4682157;30;20034;-78
2022/04/01 15:31:56;;;;;;;3.92;1.90;;;;;;;3.14;69.77;101174.22;4682257;30;20169;-78
2022/04/01 15:34:21;;;;;;;2.92;1.90;;;;;;;2.60;68.48;101095.75;4681193;30;20431;-77
2022/04/01 15:36:48;;;;;;;4.88;2.15;;;;;;;2.74;69.15;101148.91;4682319;30;20049;-76
2022/04/01 15:39:20;;;;;;;3.95;2.00;;;;;;;2.78;70.88;101181.97;4682183;30;20033;-79
2022/04/01 15:41:58;;;;;;;3.65;1.90;;;;;;;2.59;69.78;101170.53;4682060;30;20030;-78
2022/04/01 15:44:24;;;;;;;3.45;2.20;;;;;;;2.59;70.89;101189.22;4681944;30;20030;-78
2022/04/01 15:46:50;;;;;;;2.78;1.73;;;;;;;2.40;71.49;101167.59;4682114;30;20058;-78
2022/04/01 15:49:29;;;;;;;2.97;2.05;;;;;;;2.65;72.42;101197.59;4680925;30;20061;-76
2022/04/01 15:52:54;;;;;;;;;;;;;;;;;;;;;
2022/04/01 15:55:28;;;;;;;3.28;1.75;;;;;;;1.41;73.25;101007.75;4681623;30;20415;-74
2022/04/01 15:58:25;;;;;;;2.17;1.63;;;;;;;2.61;73.04;101204.47;4682129;30;20061;-74
2022/04/01 16:01:02;;;;;;;2.38;1.70;;;;;;;1.58;72.39;101063.38;4681754;30;20507;-73
2022/04/01 16:06:31;;;;;;;1.98;1.23;;;;;;;2.42;70.80;101216.81;4730986;25;20124;-81
2022/04/01 16:09:02;;;;;;;2.67;1.45;;;;;;;2.29;73.29;101207.78;4682475;30;20034;-77
2022/04/01 16:11:31;;;;;;;2.28;1.40;;;;;;;2.30;73.96;101212.84;4680971;30;20117;-77
2022/04/01 16:14:02;;;;;;;3.13;1.63;;;;;;;2.32;73.58;101214.53;4682102;30;20034;-80
2022/04/01 16:16:27;;;;;;;3.50;1.50;;;;;;;2.11;73.66;101190.38;4682134;30;20078;-77
2022/04/01 16:18:56;;;;;;;4.60;1.70;;;;;;;2.09;74.49;101215.03;4681980;30;20038;-77
2022/04/01 16:21:24;;;;;;;3.05;1.63;;;;;;;2.18;74.17;101235.22;4682004;30;20468;-80
2022/04/01 16:23:52;;;;;;;3.30;1.50;;;;;;;1.99;74.74;101212.69;4681754;30;20109;-79
2022/04/01 16:26:18;;;;;;;2.38;1.73;;;;;;;2.19;75.31;101259.81;4681724;30;20042;-80
2022/04/01 16:28:43;;;;;;;3.40;1.60;;;;;;;1.99;74.80;101232.22;4682207;30;20031;-76
2022/04/01 16:31:09;;;;;;;3.28;1.65;;;;;;;1.97;74.61;101242.47;4681829;30;20064;-79
2022/04/01 16:33:37;;;;;;;1.75;1.40;;;;;;;2.08;74.72;101261.78;4651934;30;20046;-79
2022/04/01 16:36:03;;;;;;;3.25;1.60;;;;;;;2.01;74.70;101248.31;4681828;30;20070;-79
2022/04/01 16:38:28;;;;;;;2.08;1.40;;;;;;;1.78;75.08;101225.03;4681838;30;20045;-79
2022/04/01 16:40:54;;;;;;;4.13;1.80;;;;;;;1.68;75.75;101214.19;4681732;30;20085;-77
2022/04/01 16:43:20;;;;;;;4.55;2.00;;;;;;;1.98;75.61;101267.06;4681968;30;20034;-80
2022/04/01 16:45:47;;;;;;;3.10;1.77;;;;;;;1.92;76.45;101262.06;4666379;30;20492;-79
2022/04/01 16:48:15;;;;;;;3.78;1.65;;;;;;;1.82;77.28;101258.03;4681664;30;20476;-79
2022/04/01 16:50:43;;;;;;;2.38;1.88;;;;;;;1.87;77.71;101266.44;4681812;30;20038;-79
2022/04/01 16:53:09;;;;;;;2.50;1.60;;;;;;;1.77;78.16;101251.34;4680457;30;20034;-77
2022/04/01 16:55:36;;;;;;;3.33;1.90;;;;;;;1.89;78.36;101279.97;4666109;30;20057;-79
2022/04/01 16:58:02;;;;;;;3.15;1.88;;;;;;;1.85;79.26;101278.34;4685254;30;20378;-79
2022/04/01 17:00:27;;;;;;;3.88;1.90;;;;;;;1.85;79.41;101275.78;4684917;30;20033;-80
2022/04/01 17:02:55;;;;;;;4.00;1.92;;;;;;;1.77;79.98;101271.72;4684564;30;20046;-80
2022/04/01 17:05:21;;;;;;;3.60;1.95;;;;;;;1.72;80.98;101277.75;4684553;30;20037;-78
2022/04/01 17:12:31;;;;;;;4.25;2.10;;;;;;;1.70;81.51;101276.94;4685069;30;20077;-81
2022/04/01 17:13:15;;;;;;;4.05;2.17;;;;;;;1.65;82.17;101278.72;4683243;30;20046;-79
2022/04/01 17:15:40;;;;;;;5.72;2.13;;;;;;;1.57;82.60;101259.38;4684501;30;20049;-77
2022/04/01 17:18:06;;;;;;;4.40;1.92;;;;;;;1.63;82.61;101280.47;4684439;30;20038;-76
2022/04/01 17:20:33;;;;;;;3.45;2.20;;;;;;;1.72;83.21;101290.47;4684254;30;20058;-77
2022/04/01 17:22:59;;;;;;;4.70;2.30;;;;;;;1.72;83.24;101303.19;4684353;30;20031;-77
2022/04/01 17:25:25;;;;;;;3.35;1.80;;;;;;;1.51;82.61;101277.31;4684268;30;20041;-77
2022/04/01 17:27:50;;;;;;;4.30;2.38;;;;;;;1.62;82.85;101301.69;4684369;30;20034;-79
2022/04/01 17:30:19;;;;;;;3.85;2.30;;;;;;;1.64;82.86;101299.13;4684300;30;20034;-78
2022/04/01 17:32:50;;;;;;;6.40;2.20;;;;;;;1.40;83.43;101273.25;4683736;30;20046;-79
2022/04/01 17:35:20;;;;;;;4.35;2.10;;;;;;;1.51;83.71;101298.50;4684004;30;20476;-79
2022/04/01 17:37:53;;;;;;;3.60;2.13;;;;;;;1.42;83.90;101291.03;4668558;30;20034;-79
2022/04/01 17:40:21;;;;;;;4.28;2.25;;;;;;;1.48;84.16;101313.84;4684382;30;20060;-78
2022/04/01 17:42:50;;;;;;;3.88;2.35;;;;;;;1.28;84.80;101282.78;4668641;30;20467;-79
2022/04/01 17:45:15;;;;;;;4.07;2.50;;;;;;;1.48;85.13;101311.31;4683671;30;20133;-79
2022/04/01 17:47:41;;;;;;;4.03;2.20;;;;;;;1.12;84.38;101247.47;4683704;30;20112;-77
2022/04/01 17:50:08;;;;;;;5.13;2.17;;;;;;;1.49;84.22;101315.53;4683941;30;20030;-79
2022/04/01 17:52:33;;;;;;;3.75;2.00;;;;;;;1.53;83.77;101326.47;4684172;30;20033;-77
2022/04/01 17:55:02;;;;;;;3.88;1.95;;;;;;;1.47;83.09;101316.38;4684134;30;20124;-78
2022/04/01 17:57:39;;;;;;;4.45;2.00;;;;;;;1.41;83.53;101318.19;4682901;30;20418;-78
2022/04/01 18:00:10;;;;;;;5.22;2.20;;;;;;;1.11;82.79;101285.66;4683989;30;20050;-78
2022/04/01 18:02:36;;;;;;;4.82;2.13;;;;;;;1.32;83.07;101322.59;4683456;30;20067;-78
2022/04/01 18:05:02;;;;;;;3.05;2.10;;;;;;;1.34;83.03;101334.41;4682936;30;20388;-78
2022/04/01 18:07:32;;;;;;;3.72;2.08;;;;;;;1.04;83.53;101302.69;4682220;30;20524;-78
2022/04/01 18:10:00;;;;;;;4.13;2.20;;;;;;;0.79;84.09;101276.84;4683945;30;20057;-79
2022/04/01 18:12:36;;;;;;;4.82;2.13;;;;;;;1.08;83.75;101322.16;4683821;30;20034;-78
2022/04/01 18:15:04;;;;;;;5.03;2.40;;;;;;;1.20;84.33;101344.00;4683851;30;20149;-77
2022/04/01 18:17:33;;;;;;;5.93;2.28;;;;;;;1.02;85.08;101339.19;4683278;30;20095;-79
2022/04/01 18:19:59;;;;;;;4.35;2.20;;;;;;;0.82;84.95;101314.06;4682636;30;20084;-79
2022/04/01 18:22:24;;;;;;;5.50;2.45;;;;;;;0.78;85.31;101313.25;4683908;30;20065;-79
2022/04/01 18:27:47;;;;;;;5.00;2.35;;;;;;;0.96;86.34;101364.72;4683555;30;20053;-78
2022/04/01 18:30:16;;;;;;;5.20;2.25;;;;;;;0.97;86.58;101356.22;4683521;30;20034;-78
2022/04/01 18:32:52;;;;;;;4.05;2.55;;;;;;;0.65;87.16;101308.38;4683420;30;20121;-78
2022/04/01 18:35:27;;;;;;;4.97;2.40;;;;;;;0.72;87.30;101336.25;4683529;30;20034;-78
2022/04/01 18:37:54;;;;;;;5.32;2.40;;;;;;;0.58;88.08;101312.72;4683527;30;20072;-76
2022/04/01 18:40:21;;;;;;;5.80;2.60;;;;;;;0.88;88.54;101366.50;4683344;30;20045;-77
2022/04/01 18:42:52;;;;;;;4.90;2.60;;;;;;;0.78;88.29;101353.94;4683263;30;20042;-78
2022/04/01 18:45:20;;;;;;;4.25;2.30;;;;;;;0.43;88.09;101298.53;4683222;30;20046;-78
2022/04/01 18:47:46;;;;;;;4.85;2.60;;;;;;;0.78;88.10;101365.81;4683275;30;20030;-78
2022/04/01 18:50:15;;;;;;;4.13;2.50;;;;;;;0.80;88.24;101364.09;4683065;30;20117;-78
2022/04/01 18:52:45;;;;;;;4.05;2.38;;;;;;;0.70;88.01;101347.31;4667558;30;20463;-78
2022/04/01 18:55:13;;;;;;;5.13;2.47;;;;;;;1.00;87.70;101391.78;4682807;30;20038;-78
2022/04/01 18:57:42;;;;;;;4.25;2.40;;;;;;;0.67;87.59;101345.63;4683086;30;20041;-79
2022/04/01 19:00:13;;;;;;;4.22;2.40;;;;;;;0.81;87.99;101379.34;4683076;30;20061;-79
2022/04/01 19:02:38;;;;;;;4.80;2.78;;;;;;;0.91;87.33;101386.84;4682862;30;20037;-79
2022/04/01 19:05:06;;;;;;;3.50;2.40;;;;;;;1.01;87.34;101409.56;4682781;30;20038;-78
2022/04/01 19:07:52;;;;;;;4.28;2.25;;;;;;;0.80;86.64;101380.19;4682810;30;20508;-77
2022/04/01 19:10:22;;;;;;;4.55;2.53;;;;;;;1.01;87.23;101407.03;4682932;30;20443;-78
2022/04/01 19:12:50;;;;;;;4.95;2.58;;;;;;;0.81;85.96;101370.88;4682683;30;20034;-78
2022/04/01 19:15:23;;;;;;;6.43;2.55;;;;;;;1.05;84.20;101406.09;4682520;30;20034;-79
2022/04/01 19:17:50;;;;;;;5.63;2.30;;;;;;;1.14;83.69;101418.69;4682644;30;20041;-78
2022/04/01 19:20:16;;;;;;;3.72;2.10;;;;;;;1.12;80.35;101404.31;4680447;30;20038;-78
2022/04/01 19:22:50;;;;;;;4.32;2.08;;;;;;;0.90;77.67;101377.53;4682140;30;20042;-78
2022/04/01 19:25:20;;;;;;;3.65;1.80;;;;;;;1.04;73.93;101390.88;4681409;30;20034;-78
2022/04/01 19:27:45;;;;;;;2.70;1.60;;;;;;;1.05;74.35;101383.22;4682462;30;20406;-79
2022/04/01 19:30:13;;;;;;;4.05;1.67;;;;;;;1.11;72.24;101393.31;4682640;30;20100;-79
2022/04/01 19:32:39;;;;;;;3.28;1.67;;;;;;;1.33;73.29;101434.53;4682498;30;20034;-80
2022/04/01 19:35:05;;;;;;;3.75;1.80;;;;;;;0.92;72.24;101360.53;4682055;30;20030;-80
2022/04/01 19:37:40;;;;;;;3.13;1.67;;;;;;;1.16;72.32;101398.31;4667346;30;20163;-79
2022/04/01 19:40:08;;;;;;;3.92;2.08;;;;;;;1.13;69.60;101385.66;4682103;30;20084;-78